Time;durP1;ratioP1;P1;durP2;ratioP2;P2;SDS_P1;SDS_P2;PMS_P1;PMS_P2;Temp;Humidity;BMP_temperature;BMP_pressure;BME280_temperature;BME280_humidity;BME280_pressure;Samples;Min_cycle;Max_cycle;Signal;HPM_P1;HPM_P2
2021/04/10 00:01:57;;;;;;;17.15;12.35;;;;;;;;;;4980833;28;20211;-88
2021/04/10 00:04:23;;;;;;;20.13;12.90;;;;;;;;;;4965138;28;20180;-86
2021/04/10 00:06:49;;;;;;;20.17;12.73;;;;;;;;;;4979745;28;20459;-87
2021/04/10 00:09:15;;;;;;;17.05;12.55;;;;;;;;;;4963513;28;20188;-87
2021/04/10 00:11:41;;;;;;;18.80;12.75;;;;;;;;;;4973688;28;20188;-87
2021/04/10 00:14:07;;;;;;;23.75;13.35;;;;;;;;;;4980216;28;20223;-87
2021/04/10 00:16:35;;;;;;;18.50;12.00;;;;;;;;;;4966184;28;20244;-87
2021/04/10 00:19:01;;;;;;;19.27;12.43;;;;;;;;;;4980904;28;20252;-85
2021/04/10 00:21:27;;;;;;;15.70;11.47;;;;;;;;;;4979062;28;20211;-87
2021/04/10 00:23:54;;;;;;;18.02;12.13;;;;;;;;;;4965079;28;20432;-87
2021/04/10 00:26:20;;;;;;;15.55;12.82;;;;;;;;;;4965157;28;20196;-85
2021/04/10 00:28:46;;;;;;;15.18;11.27;;;;;;;;;;4980005;28;20184;-86
2021/04/10 00:31:12;;;;;;;18.95;12.25;;;;;;;;;;4974833;28;20176;-87
2021/04/10 00:33:39;;;;;;;15.68;11.95;;;;;;;;;;4979785;28;20191;-86
2021/04/10 00:36:06;;;;;;;21.35;13.18;;;;;;;;;;4979426;28;20188;-87
2021/04/10 00:38:32;;;;;;;18.13;11.82;;;;;;;;;;4965008;28;20267;-86
2021/04/10 00:40:59;;;;;;;18.23;12.13;;;;;;;;;;4964362;28;20662;-86
2021/04/10 00:43:25;;;;;;;14.88;13.35;;;;;;;;;;4964699;28;20602;-86
2021/04/10 00:45:51;;;;;;;16.52;12.73;;;;;;;;;;4963527;28;20268;-88
2021/04/10 00:48:17;;;;;;;19.98;12.85;;;;;;;;;;4961114;28;20219;-86
2021/04/10 00:50:43;;;;;;;18.40;12.00;;;;;;;;;;4964121;28;20359;-88
2021/04/10 00:53:09;;;;;;;17.20;12.95;;;;;;;;;;4965459;28;20247;-87
2021/04/10 00:55:36;;;;;;;19.90;12.38;;;;;;;;;;4980114;28;20341;-88
2021/04/10 00:58:02;;;;;;;14.55;11.52;;;;;;;;;;4964460;28;20199;-87
2021/04/10 01:00:28;;;;;;;16.52;12.50;;;;;;;;;;4979459;28;20195;-86
2021/04/10 01:02:55;;;;;;;22.48;13.20;;;;;;;;;;4963937;28;20216;-89
2021/04/10 01:05:21;;;;;;;14.35;12.85;;;;;;;;;;4960378;28;20563;-89
2021/04/10 01:07:47;;;;;;;24.52;12.20;;;;;;;;;;4964083;29;20204;-88
2021/04/10 01:10:13;;;;;;;15.30;12.60;;;;;;;;;;4965950;28;20249;-88
2021/04/10 01:12:58;;;;;;;19.08;13.80;;;;;;;;;;4964006;28;20204;-86
2021/04/10 01:15:33;;;;;;;23.88;12.68;;;;;;;;;;4964818;28;20203;-88
2021/04/10 01:18:02;;;;;;;18.17;12.32;;;;;;;;;;4960787;28;20223;-91
2021/04/10 01:20:47;;;;;;;20.17;12.60;;;;;;;;;;4967992;28;20188;-89
2021/04/10 01:23:22;;;;;;;18.40;13.38;;;;;;;;;;4965427;28;20208;-92
2021/04/10 01:25:48;;;;;;;20.58;13.30;;;;;;;;;;4972439;28;20275;-91
2021/04/10 01:28:33;;;;;;;30.53;14.43;;;;;;;;;;4969804;28;20183;-92
2021/04/10 01:30:59;;;;;;;21.25;12.30;;;;;;;;;;4979581;28;20528;-92
2021/04/10 01:33:28;;;;;;;17.23;11.95;;;;;;;;;;4963894;28;20207;-88
2021/04/10 01:35:57;;;;;;;23.73;13.48;;;;;;;;;;4968447;28;20710;-92
2021/04/10 01:38:26;;;;;;;19.33;12.75;;;;;;;;;;4964791;28;20264;-91
2021/04/10 01:40:53;;;;;;;18.77;12.30;;;;;;;;;;4967644;28;20215;-90
2021/04/10 01:43:19;;;;;;;24.52;12.93;;;;;;;;;;4982817;28;20187;-89
2021/04/10 01:45:46;;;;;;;31.65;13.32;;;;;;;;;;4968573;28;20520;-92
2021/04/10 01:48:14;;;;;;;32.50;13.23;;;;;;;;;;4964586;28;20188;-92
2021/04/10 01:50:40;;;;;;;23.17;13.40;;;;;;;;;;4972945;28;20275;-92
2021/04/10 01:53:07;;;;;;;22.77;13.00;;;;;;;;;;4968299;28;20199;-92
2021/04/10 01:55:33;;;;;;;21.55;13.57;;;;;;;;;;4969129;28;20200;-90
2021/04/10 01:58:00;;;;;;;16.95;12.52;;;;;;;;;;4983687;28;20173;-91
2021/04/10 02:00:30;;;;;;;22.42;14.15;;;;;;;;;;4983010;28;20347;-89
2021/04/10 02:02:56;;;;;;;19.95;12.60;;;;;;;;;;4978306;28;20207;-91
2021/04/10 02:05:23;;;;;;;23.80;14.50;;;;;;;;;;4964013;28;20181;-92
2021/04/10 02:07:49;;;;;;;20.55;13.85;;;;;;;;;;4982918;28;20176;-91
2021/04/10 02:10:17;;;;;;;21.10;15.40;;;;;;;;;;4969275;28;20211;-91
2021/04/10 02:12:43;;;;;;;21.73;13.45;;;;;;;;;;4964018;28;20204;-92
2021/04/10 02:15:11;;;;;;;23.52;13.80;;;;;;;;;;4963433;28;20211;-91
2021/04/10 02:17:37;;;;;;;;;;;;;;;;;;4968295;28;20492;-90
2021/04/10 02:20:06;;;;;;;;;;;;;;;;;;4983060;28;20030;-88
2021/04/10 02:22:33;;;;;;;;;;;;;;;;;;4969116;28;20003;-87
2021/04/10 02:24:59;;;;;;;;;;;;;;;;;;4979134;28;20008;-91
2021/04/10 02:27:25;;;;;;;;;;;;;;;;;;4967726;28;20003;-91
2021/04/10 02:29:51;;;;;;;;;;;;;;;;;;4982343;28;20042;-91
2021/04/10 02:32:17;;;;;;;;;;;;;;;;;;4967212;28;19991;-92
2021/04/10 02:34:43;;;;;;;;;;;;;;;;;;4967493;28;20015;-89
2021/04/10 02:37:09;;;;;;;;;;;;;;;;;;4968912;29;19995;-91
2021/04/10 02:39:34;;;;;;;;;;;;;;;;;;4982951;28;19991;-92
2021/04/10 02:42:01;;;;;;;;;;;;;;;;;;4982708;28;20007;-91
2021/04/10 02:44:26;;;;;;;;;;;;;;;;;;4983150;28;20002;-92
2021/04/10 02:46:52;;;;;;;;;;;;;;;;;;4966723;28;19995;-92
2021/04/10 02:49:18;;;;;;;;;;;;;;;;;;4968642;28;19983;-92
2021/04/10 02:51:44;;;;;;;;;;;;;;;;;;4965600;28;19988;-91
2021/04/10 02:54:10;;;;;;;;;;;;;;;;;;4966096;28;20002;-91
2021/04/10 02:56:36;;;;;;;;;;;;;;;;;;4967049;28;19991;-91
2021/04/10 02:59:02;;;;;;;;;;;;;;;;;;4981892;28;19999;-90
2021/04/10 03:01:28;;;;;;;;;;;;;;;;;;4968699;28;20003;-90
2021/04/10 03:03:54;;;;;;;;;;;;;;;;;;4965999;28;20002;-91
2021/04/10 03:06:19;;;;;;;;;;;;;;;;;;4967264;28;19995;-89
2021/04/10 03:08:45;;;;;;;;;;;;;;;;;;4967342;28;19991;-90
2021/04/10 03:11:11;;;;;;;;;;;;;;;;;;4982299;28;20002;-89
2021/04/10 03:13:37;;;;;;;;;;;;;;;;;;4967543;28;20104;-89
2021/04/10 03:16:03;;;;;;;;;;;;;;;;;;4967108;29;19990;-89
2021/04/10 03:18:29;;;;;;;;;;;;;;;;;;4962575;28;20019;-89
2021/04/10 03:20:55;;;;;;;;;;;;;;;;;;4982117;28;20528;-89
2021/04/10 03:23:21;;;;;;;;;;;;;;;;;;4982357;28;20033;-89
2021/04/10 03:25:47;;;;;;;;;;;;;;;;;;4966491;28;19983;-89
2021/04/10 03:28:12;;;;;;;;;;;;;;;;;;4967604;29;19979;-89
2021/04/10 03:30:38;;;;;;;;;;;;;;;;;;4981419;28;19987;-90
2021/04/10 03:33:04;;;;;;;;;;;;;;;;;;4966615;28;20046;-90
2021/04/10 03:35:30;;;;;;;;;;;;;;;;;;4966676;28;20352;-90
2021/04/10 03:37:56;;;;;;;;;;;;;;;;;;4966962;28;19987;-90
2021/04/10 03:40:22;;;;;;;;;;;;;;;;;;4982627;28;20006;-89
2021/04/10 03:42:48;;;;;;;;;;;;;;;;;;4966219;28;20504;-89
2021/04/10 03:45:14;;;;;;;;;;;;;;;;;;4961803;29;20002;-88
2021/04/10 03:47:39;;;;;;;;;;;;;;;;;;4981324;28;19994;-88
2021/04/10 03:50:05;;;;;;;;;;;;;;;;;;4966416;28;20002;-89
2021/04/10 03:52:31;;;;;;;;;;;;;;;;;;4967429;28;19983;-87
2021/04/10 03:54:57;;;;;;;;;;;;;;;;;;4977534;28;19979;-89
2021/04/10 03:57:23;;;;;;;;;;;;;;;;;;4965363;28;19995;-89
2021/04/10 03:59:49;;;;;;;;;;;;;;;;;;4981168;28;20089;-89
2021/04/10 04:02:15;;;;;;;;;;;;;;;;;;4966592;28;20018;-88
2021/04/10 04:04:41;;;;;;;;;;;;;;;;;;4967409;28;19987;-89
2021/04/10 04:07:08;;;;;;;;;;;;;;;;;;4967253;29;19983;-90
2021/04/10 04:09:34;;;;;;;;;;;;;;;;;;4980945;28;20377;-86
2021/04/10 04:12:00;;;;;;;;;;;;;;;;;;4961118;28;19991;-89
2021/04/10 04:14:25;;;;;;;;;;;;;;;;;;4979316;28;19999;-89
2021/04/10 04:16:51;;;;;;;;;;;;;;;;;;4966125;28;20066;-89
2021/04/10 04:19:17;;;;;;;;;;;;;;;;;;4967241;29;20338;-88
2021/04/10 04:21:43;;;;;;;;;;;;;;;;;;4966275;28;20030;-88
2021/04/10 04:24:09;;;;;;;;;;;;;;;;;;4980382;28;20026;-88
2021/04/10 04:26:35;;;;;;;;;;;;;;;;;;4963909;28;19991;-88
2021/04/10 04:29:01;;;;;;;;;;;;;;;;;;4966411;28;20038;-89
2021/04/10 04:31:27;;;;;;;;;;;;;;;;;;4966967;29;20009;-89
2021/04/10 04:33:52;;;;;;;;;;;;;;;;;;4966417;28;19987;-88
2021/04/10 04:36:18;;;;;;;;;;;;;;;;;;4980829;28;20434;-89
2021/04/10 04:38:44;;;;;;;;;;;;;;;;;;4980377;28;20010;-89
2021/04/10 04:41:10;;;;;;;;;;;;;;;;;;4965133;28;20003;-89
2021/04/10 04:43:36;;;;;;;;;;;;;;;;;;4966034;28;19983;-87
2021/04/10 04:46:02;;;;;;;;;;;;;;;;;;4964485;28;19987;-90
2021/04/10 04:48:28;;;;;;;;;;;;;;;;;;4965673;28;19987;-89
2021/04/10 04:50:54;;;;;;;;;;;;;;;;;;4964537;28;20740;-89
2021/04/10 04:53:21;;;;;;;;;;;;;;;;;;4980142;28;20086;-90
2021/04/10 04:55:47;;;;;;;;;;;;;;;;;;4966032;28;19991;-89
2021/04/10 04:58:13;;;;;;;;;;;;;;;;;;4980608;28;20051;-89
2021/04/10 05:00:39;;;;;;;;;;;;;;;;;;4965349;28;20021;-89
2021/04/10 05:03:05;;;;;;;;;;;;;;;;;;4980011;28;19995;-90
2021/04/10 05:05:31;;;;;;;;;;;;;;;;;;4964281;28;19998;-91
2021/04/10 05:07:57;;;;;;;;;;;;;;;;;;4963587;28;19999;-88
2021/04/10 05:10:23;;;;;;;;;;;;;;;;;;4964885;28;20397;-90
2021/04/10 05:12:48;;;;;;;;;;;;;;;;;;4963784;28;19991;-90
2021/04/10 05:15:14;;;;;;;;;;;;;;;;;;4965091;28;20369;-90
2021/04/10 05:17:40;;;;;;;;;;;;;;;;;;4965039;29;20030;-89
2021/04/10 05:20:08;;;;;;;;;;;;;;;;;;4979245;28;20015;-89
2021/04/10 05:22:33;;;;;;;;;;;;;;;;;;4974701;28;20017;-89
2021/04/10 05:24:59;;;;;;;;;;;;;;;;;;4965003;28;20027;-89
2021/04/10 05:27:25;;;;;;;;;;;;;;;;;;4965239;28;20040;-89
2021/04/10 05:29:51;;;;;;;;;;;;;;;;;;4980326;28;20084;-89
2021/04/10 05:32:17;;;;;;;;;;;;;;;;;;4964643;28;19987;-89
2021/04/10 05:34:43;;;;;;;;;;;;;;;;;;4964254;28;19983;-89
2021/04/10 05:37:09;;;;;;;;;;;;;;;;;;4964681;28;20015;-89
2021/04/10 05:39:35;;;;;;;;;;;;;;;;;;4963972;28;19987;-89
2021/04/10 05:42:00;;;;;;;;;;;;;;;;;;4964278;28;20513;-88
2021/04/10 05:44:26;;;;;;;;;;;;;;;;;;4964972;28;20037;-88
2021/04/10 05:46:52;;;;;;;;;;;;;;;;;;4964678;28;19995;-88
2021/04/10 05:49:18;;;;;;;;;;;;;;;;;;4975980;28;19983;-88
2021/04/10 05:51:44;;;;;;;;;;;;;;;;;;4980238;28;19994;-88
2021/04/10 05:54:10;;;;;;;;;;;;;;;;;;4979270;28;19995;-88
2021/04/10 05:56:36;;;;;;;;;;;;;;;;;;4963827;28;19991;-87
2021/04/10 05:59:02;;;;;;;;;;;;;;;;;;4969420;28;19990;-89
2021/04/10 06:01:27;;;;;;;;;;;;;;;;;;4976721;28;20062;-87
2021/04/10 06:03:53;;;;;;;;;;;;;;;;;;4966395;28;20046;-87
2021/04/10 06:06:19;;;;;;;;;;;;;;;;;;4968377;28;20045;-87
2021/04/10 06:08:45;;;;;;;;;;;;;;;;;;4968054;28;20017;-87
2021/04/10 06:11:11;;;;;;;;;;;;;;;;;;4967635;28;19991;-85
2021/04/10 06:13:37;;;;;;;;;;;;;;;;;;4970105;28;20038;-87
2021/04/10 06:16:03;;;;;;;;;;;;;;;;;;4965104;28;19991;-83
2021/04/10 06:18:29;;;;;;;;;;;;;;;;;;4966118;28;20016;-87
2021/04/10 06:20:54;;;;;;;;;;;;;;;;;;4966364;28;20035;-86
2021/04/10 06:23:20;;;;;;;;;;;;;;;;;;4967906;28;19995;-86
2021/04/10 06:25:46;;;;;;;;;;;;;;;;;;4967527;28;19987;-86
2021/04/10 06:28:12;;;;;;;;;;;;;;;;;;4967996;28;20031;-88
2021/04/10 06:30:38;;;;;;;;;;;;;;;;;;4967439;28;19987;-87
2021/04/10 06:33:04;;;;;;;;;;;;;;;;;;4967474;28;19998;-87
2021/04/10 06:35:30;;;;;;;;;;;;;;;;;;4983146;28;19991;-88
2021/04/10 06:37:56;;;;;;;;;;;;;;;;;;4967552;28;19987;-88
2021/04/10 06:40:22;;;;;;;;;;;;;;;;;;4969109;29;19985;-87
2021/04/10 06:42:47;;;;;;;;;;;;;;;;;;4967196;28;20010;-87
2021/04/10 06:45:13;;;;;;;;;;;;;;;;;;4982297;28;19995;-86
2021/04/10 06:47:39;;;;;;;;;;;;;;;;;;4967531;28;20070;-87
2021/04/10 06:50:05;;;;;;;;;;;;;;;;;;4982613;28;20317;-87
2021/04/10 06:52:31;;;;;;;;;;;;;;;;;;4968603;28;20019;-87
2021/04/10 06:54:57;;;;;;;;;;;;;;;;;;4967685;28;19987;-87
2021/04/10 06:57:23;;;;;;;;;;;;;;;;;;4981930;28;20018;-87
2021/04/10 06:59:49;;;;;;;;;;;;;;;;;;4981303;28;20424;-84
2021/04/10 07:02:15;;;;;;;;;;;;;;;;;;4966751;28;20049;-86
2021/04/10 07:04:41;;;;;;;;;;;;;;;;;;4966887;28;19987;-86
2021/04/10 07:07:07;;;;;;;;;;;;;;;;;;4964688;28;20030;-85
2021/04/10 07:11:21;;;;;;;24.08;18.75;;;;;;;;;;5114554;27;20555;-78
2021/04/10 07:13:46;;;;;;;;;;;;;;;;;;5091759;28;20103;-77
2021/04/10 07:16:12;;;;;;;;;;;;;;;;;;5101634;28;20077;-78
2021/04/10 07:18:38;;;;;;;;;;;;;;;;;;5106196;28;20015;-78
2021/04/10 07:21:04;;;;;;;;;;;;;;;;;;5098965;28;19982;-78
2021/04/10 07:23:30;;;;;;;;;;;;;;;;;;5096954;28;19985;-78
2021/04/10 07:25:56;;;;;;;;;;;;;;;;;;5099052;28;20027;-78
2021/04/10 07:28:22;;;;;;;;;;;;;;;;;;5102345;28;19981;-78
2021/04/10 07:30:48;;;;;;;;;;;;;;;;;;5093856;28;20068;-79
2021/04/10 07:33:14;;;;;;;;;;;;;;;;;;5092134;28;20048;-77
2021/04/10 07:35:39;;;;;;;;;;;;;;;;;;5114730;28;20002;-77
2021/04/10 07:38:05;;;;;;;;;;;;;;;;;;5098103;28;19989;-78
2021/04/10 07:40:31;;;;;;;;;;;;;;;;;;5110501;28;20433;-77
2021/04/10 07:42:57;;;;;;;;;;;;;;;;;;5093338;28;19992;-78
2021/04/10 07:45:23;;;;;;;;;;;;;;;;;;5090002;28;20041;-78
2021/04/10 07:47:49;;;;;;;;;;;;;;;;;;5099125;28;19985;-79
2021/04/10 07:50:15;;;;;;;;;;;;;;;;;;5096132;28;20457;-78
2021/04/10 07:52:41;;;;;;;;;;;;;;;;;;5098641;28;19988;-78
2021/04/10 07:55:06;;;;;;;;;;;;;;;;;;5095455;28;20112;-78
2021/04/10 07:57:32;;;;;;;;;;;;;;;;;;5095755;28;20000;-78
2021/04/10 08:00:00;;;;;;;;;;;;;;;;;;5096816;28;20387;-80
2021/04/10 08:02:26;;;;;;;;;;;;;;;;;;5098748;28;20008;-78
2021/04/10 08:04:52;;;;;;;;;;;;;;;;;;5097011;28;20001;-78
2021/04/10 08:07:18;;;;;;;;;;;;;;;;;;5103152;28;20084;-79
2021/04/10 08:09:44;;;;;;;;;;;;;;;;;;5099761;28;20048;-78
2021/04/10 08:12:11;;;;;;;;;;;;;;;;;;5092095;28;20479;-78
2021/04/10 08:14:37;;;;;;;;;;;;;;;;;;5095161;28;19988;-78
2021/04/10 08:17:03;;;;;;;;;;;;;;;;;;5121032;28;20339;-78
2021/04/10 08:19:29;;;;;;;;;;;;;;;;;;5097795;28;20038;-79
2021/04/10 08:21:55;;;;;;;;;;;;;;;;;;5083532;28;20023;-78
2021/04/10 08:24:21;;;;;;;;;;;;;;;;;;5079252;28;19993;-78
2021/04/10 08:26:47;;;;;;;;;;;;;;;;;;5081463;28;19993;-78
2021/04/10 08:29:13;;;;;;;;;;;;;;;;;;5073705;28;20648;-78
2021/04/10 08:31:39;;;;;;;;;;;;;;;;;;5085429;28;19988;-79
2021/04/10 08:36:31;;;;;;;10.97;6.00;;;;;;;;;;5128577;27;854553;-78
2021/04/10 08:38:58;;;;;;;6.18;5.10;;;;;;;;;;5134270;28;20179;-77
2021/04/10 08:41:27;;;;;;;7.80;4.30;;;;;;;;;;5136049;28;20187;-80
2021/04/10 08:43:53;;;;;;;5.60;4.05;;;;;;;;;;5133076;28;20186;-80
2021/04/10 08:46:20;;;;;;;5.68;4.10;;;;;;;;;;5134011;28;20219;-77
2021/04/10 08:48:50;;;;;;;5.93;4.03;;;;;;;;;;5127635;28;20178;-79
2021/04/10 08:51:16;;;;;;;8.02;3.92;;;;;;;;;;5126665;28;20259;-80
2021/04/10 08:53:42;;;;;;;;;;;;;;;;;;5123931;28;20103;-83
2021/04/10 08:56:08;;;;;;;;;;;;;;;;;;5138287;28;20534;-79
2021/04/10 08:58:37;;;;;;;;;;;;;;;;;;5134725;28;19976;-78
2021/04/10 09:01:03;;;;;;;;;;;;;;;;;;5133241;28;19988;-79
2021/04/10 09:03:29;;;;;;;;;;;;;;;;;;5136986;28;20101;-78
2021/04/10 09:05:55;;;;;;;;;;;;;;;;;;5125771;28;20060;-78
2021/04/10 09:08:21;;;;;;;;;;;;;;;;;;5135456;28;20033;-79
2021/04/10 09:10:46;;;;;;;;;;;;;;;;;;5134346;28;20009;-78
2021/04/10 09:13:15;;;;;;;;;;;;;;;;;;5133064;28;19984;-80
2021/04/10 09:15:41;;;;;;;;;;;;;;;;;;5130890;28;20000;-81
2021/04/10 09:18:07;;;;;;;;;;;;;;;;;;5138593;28;20041;-78
2021/04/10 09:20:33;;;;;;;;;;;;;;;;;;5137238;28;20469;-79
2021/04/10 09:22:59;;;;;;;;;;;;;;;;;;5133107;28;20000;-79
2021/04/10 09:25:25;;;;;;;;;;;;;;;;;;5120148;28;20036;-79
2021/04/10 09:27:51;;;;;;;;;;;;;;;;;;5124243;28;19991;-78
2021/04/10 09:30:17;;;;;;;;;;;;;;;;;;5125682;28;19988;-80
2021/04/10 09:32:43;;;;;;;;;;;;;;;;;;5137617;28;19984;-80
2021/04/10 09:35:09;;;;;;;;;;;;;;;;;;5132178;28;20009;-79
2021/04/10 09:37:35;;;;;;;;;;;;;;;;;;5123213;28;20466;-78
2021/04/10 09:40:05;;;;;;;;;;;;;;;;;;5125957;28;19985;-77
2021/04/10 09:42:30;;;;;;;;;;;;;;;;;;5127390;28;20369;-79
2021/04/10 09:44:56;;;;;;;;;;;;;;;;;;5134082;28;20055;-79
2021/04/10 09:47:22;;;;;;;;;;;;;;;;;;5111928;28;20012;-77
2021/04/10 09:49:48;;;;;;;;;;;;;;;;;;5119869;28;19995;-79
2021/04/10 09:52:14;;;;;;;;;;;;;;;;;;5119881;28;19992;-79
2021/04/10 09:54:40;;;;;;;;;;;;;;;;;;5118982;28;20008;-78
2021/04/10 09:57:06;;;;;;;;;;;;;;;;;;5117724;28;19993;-79
2021/04/10 09:59:32;;;;;;;;;;;;;;;;;;5117847;28;20091;-78
2021/04/10 10:01:57;;;;;;;;;;;;;;;;;;5108133;28;20019;-78
2021/04/10 10:04:23;;;;;;;;;;;;;;;;;;5121068;28;19999;-78
2021/04/10 10:06:52;;;;;;;;;;;;;;;;;;5124197;28;19988;-79
2021/04/10 10:09:18;;;;;;;;;;;;;;;;;;5117765;28;20025;-78
2021/04/10 10:11:44;;;;;;;;;;;;;;;;;;5119088;28;20008;-79
2021/04/10 10:14:10;;;;;;;;;;;;;;;;;;5111091;28;20020;-78
2021/04/10 10:16:35;;;;;;;;;;;;;;;;;;5112783;28;19992;-80
2021/04/10 10:19:02;;;;;;;;;;;;;;;;;;5117592;28;19980;-81
2021/04/10 10:21:28;;;;;;;;;;;;;;;;;;5117183;28;19993;-79
2021/04/10 10:23:54;;;;;;;;;;;;;;;;;;5119310;28;19996;-80
2021/04/10 10:26:20;;;;;;;;;;;;;;;;;;5119059;28;19992;-80
2021/04/10 10:28:46;;;;;;;;;;;;;;;;;;5122083;28;20497;-81
2021/04/10 10:31:12;;;;;;;;;;;;;;;;;;5124339;28;19980;-80
2021/04/10 10:33:38;;;;;;;;;;;;;;;;;;5123955;28;19996;-80
2021/04/10 10:36:04;;;;;;;;;;;;;;;;;;5117721;28;20011;-82
2021/04/10 10:38:30;;;;;;;;;;;;;;;;;;5122573;28;20475;-80
2021/04/10 10:40:56;;;;;;;;;;;;;;;;;;5115713;28;20046;-80
2021/04/10 10:43:21;;;;;;;;;;;;;;;;;;5110247;28;19988;-80
2021/04/10 10:45:47;;;;;;;;;;;;;;;;;;5114439;28;20542;-80
2021/04/10 10:48:13;;;;;;;;;;;;;;;;;;5116898;28;19997;-80
2021/04/10 10:50:39;;;;;;;;;;;;;;;;;;5120391;28;19989;-80
2021/04/10 10:53:05;;;;;;;;;;;;;;;;;;5120784;28;20434;-81
2021/04/10 10:55:31;;;;;;;;;;;;;;;;;;5118790;28;20034;-81
2021/04/10 10:57:57;;;;;;;;;;;;;;;;;;5108968;28;19995;-80
2021/04/10 11:00:23;;;;;;;;;;;;;;;;;;5115079;28;20031;-80
2021/04/10 11:02:48;;;;;;;;;;;;;;;;;;5119729;28;19993;-79
2021/04/10 11:05:15;;;;;;;;;;;;;;;;;;5120250;28;20080;-80
2021/04/10 11:07:41;;;;;;;;;;;;;;;;;;5118132;28;20377;-80
2021/04/10 11:10:07;;;;;;;;;;;;;;;;;;5117357;28;19980;-78
2021/04/10 11:12:33;;;;;;;;;;;;;;;;;;5115566;28;19994;-80
2021/04/10 11:14:59;;;;;;;;;;;;;;;;;;5118136;28;20091;-79
2021/04/10 11:17:25;;;;;;;;;;;;;;;;;;5120624;28;19992;-80
2021/04/10 11:19:51;;;;;;;;;;;;;;;;;;5116006;28;19985;-79
2021/04/10 11:22:17;;;;;;;;;;;;;;;;;;5109348;28;19981;-79
2021/04/10 11:24:43;;;;;;;;;;;;;;;;;;5117232;28;20235;-79
2021/04/10 11:27:09;;;;;;;;;;;;;;;;;;5119031;28;20009;-80
2021/04/10 11:29:35;;;;;;;;;;;;;;;;;;5118981;28;19989;-80
2021/04/10 11:32:01;;;;;;;;;;;;;;;;;;5118454;28;19995;-81
2021/04/10 11:34:27;;;;;;;;;;;;;;;;;;5122766;28;20126;-80
2021/04/10 11:36:55;;;;;;;;;;;;;;;;;;5109541;28;19989;-81
2021/04/10 11:39:20;;;;;;;;;;;;;;;;;;5113655;28;19996;-80
2021/04/10 11:41:47;;;;;;;;;;;;;;;;;;5108690;28;20030;-79
2021/04/10 11:44:13;;;;;;;;;;;;;;;;;;5117147;28;19992;-79
2021/04/10 11:46:38;;;;;;;;;;;;;;;;;;5117994;28;19995;-79
2021/04/10 11:49:04;;;;;;;;;;;;;;;;;;5116851;28;20378;-79
2021/04/10 11:51:30;;;;;;;;;;;;;;;;;;5116952;28;20520;-80
2021/04/10 11:53:56;;;;;;;;;;;;;;;;;;5117677;28;20087;-79
2021/04/10 11:56:22;;;;;;;;;;;;;;;;;;5117869;28;20016;-79
2021/04/10 11:58:48;;;;;;;;;;;;;;;;;;5117140;28;19991;-80
2021/04/10 12:01:14;;;;;;;;;;;;;;;;;;5119808;28;20453;-81
2021/04/10 12:03:40;;;;;;;;;;;;;;;;;;5112710;28;19993;-80
2021/04/10 12:06:05;;;;;;;;;;;;;;;;;;5110014;28;19996;-81
2021/04/10 12:08:31;;;;;;;;;;;;;;;;;;5115522;28;19989;-81
2021/04/10 12:10:57;;;;;;;;;;;;;;;;;;5105425;28;20446;-83
2021/04/10 12:13:23;;;;;;;;;;;;;;;;;;5119657;28;19992;-81
2021/04/10 12:15:49;;;;;;;;;;;;;;;;;;5110778;28;20072;-82
2021/04/10 12:18:15;;;;;;;;;;;;;;;;;;5115318;28;20027;-81
2021/04/10 12:20:41;;;;;;;;;;;;;;;;;;5118915;28;19989;-81
2021/04/10 12:23:07;;;;;;;;;;;;;;;;;;5104831;28;19988;-82
2021/04/10 12:25:32;;;;;;;;;;;;;;;;;;5116689;28;19988;-81
2021/04/10 12:27:58;;;;;;;;;;;;;;;;;;5121614;28;20031;-83
2021/04/10 12:30:24;;;;;;;;;;;;;;;;;;5119924;28;19992;-81
2021/04/10 12:32:50;;;;;;;;;;;;;;;;;;5111028;28;20456;-81
2021/04/10 12:35:16;;;;;;;;;;;;;;;;;;5118910;28;20005;-82
2021/04/10 12:37:42;;;;;;;;;;;;;;;;;;5119964;28;19991;-81
2021/04/10 12:40:09;;;;;;;;;;;;;;;;;;5113582;28;20614;-82
2021/04/10 12:42:34;;;;;;;;;;;;;;;;;;5121612;28;19988;-82
2021/04/10 12:45:00;;;;;;;;;;;;;;;;;;5121659;28;19993;-83
2021/04/10 12:47:26;;;;;;;;;;;;;;;;;;5118519;28;19993;-81
2021/04/10 12:49:52;;;;;;;;;;;;;;;;;;5118712;28;19989;-79
2021/04/10 12:52:19;;;;;;;;;;;;;;;;;;5116384;28;19977;-82
2021/04/10 12:54:45;;;;;;;;;;;;;;;;;;5119792;28;20012;-81
2021/04/10 12:57:11;;;;;;;;;;;;;;;;;;5114604;28;19992;-82
2021/04/10 12:59:37;;;;;;;;;;;;;;;;;;5119443;28;19989;-80
2021/04/10 13:02:03;;;;;;;;;;;;;;;;;;5107561;28;19997;-82
2021/04/10 13:04:29;;;;;;;;;;;;;;;;;;5110026;28;19992;-83
2021/04/10 13:06:55;;;;;;;;;;;;;;;;;;5120961;28;19988;-84
2021/04/10 13:09:21;;;;;;;;;;;;;;;;;;5115484;28;20042;-83
2021/04/10 13:11:47;;;;;;;;;;;;;;;;;;5108574;28;19992;-82
2021/04/10 13:14:13;;;;;;;;;;;;;;;;;;5107791;28;19996;-82
2021/04/10 13:16:39;;;;;;;;;;;;;;;;;;5107257;28;19984;-80
2021/04/10 13:19:05;;;;;;;;;;;;;;;;;;5117426;28;20116;-82
2021/04/10 13:21:30;;;;;;;;;;;;;;;;;;5114751;28;20003;-83
2021/04/10 13:23:56;;;;;;;;;;;;;;;;;;5115616;28;20003;-84
2021/04/10 13:26:22;;;;;;;;;;;;;;;;;;5123365;28;20491;-83
2021/04/10 13:28:48;;;;;;;;;;;;;;;;;;5123291;28;19996;-83
2021/04/10 13:31:14;;;;;;;;;;;;;;;;;;5118523;28;20028;-83
2021/04/10 13:33:40;;;;;;;;;;;;;;;;;;5124728;28;20049;-83
2021/04/10 13:36:06;;;;;;;;;;;;;;;;;;5123713;28;20011;-82
2021/04/10 13:38:31;;;;;;;;;;;;;;;;;;5123217;28;20000;-82
2021/04/10 13:40:57;;;;;;;;;;;;;;;;;;5119573;28;19992;-82
2021/04/10 13:43:23;;;;;;;;;;;;;;;;;;5114950;28;20252;-82
2021/04/10 13:45:49;;;;;;;;;;;;;;;;;;5111912;28;20028;-82
2021/04/10 13:48:15;;;;;;;;;;;;;;;;;;5110500;28;20045;-81
2021/04/10 13:50:41;;;;;;;;;;;;;;;;;;5121329;28;19989;-81
2021/04/10 13:53:07;;;;;;;;;;;;;;;;;;5110252;28;20450;-81
2021/04/10 13:59:41;;;;;;;20.23;11.73;;;;;;;;;;5098171;27;20596;-79
2021/04/10 14:02:07;;;;;;;16.88;7.57;;;;;;;;;;5076802;28;20215;-80
2021/04/10 14:04:52;;;;;;;11.38;7.18;;;;;;;;;;5084414;28;20191;-79
2021/04/10 14:07:18;;;;;;;9.95;6.43;;;;;;;;;;5071079;28;20266;-79
2021/04/10 14:09:44;;;;;;;10.13;6.75;;;;;;;;;;5065627;28;20263;-79
2021/04/10 14:12:10;;;;;;;9.33;6.57;;;;;;;;;;5061540;28;20266;-79
2021/04/10 14:14:36;;;;;;;12.10;6.97;;;;;;;;;;5084537;28;20508;-79
2021/04/10 14:17:02;;;;;;;8.02;5.85;;;;;;;;;;5072242;28;20181;-80
2021/04/10 14:19:28;;;;;;;7.38;5.70;;;;;;;;;;5073316;28;20208;-81
2021/04/10 14:21:54;;;;;;;13.13;7.00;;;;;;;;;;5071520;28;20181;-80
2021/04/10 14:24:20;;;;;;;10.63;6.23;;;;;;;;;;5071298;28;20439;-79
2021/04/10 14:26:46;;;;;;;8.67;6.13;;;;;;;;;;5071949;28;20503;-78
2021/04/10 14:29:12;;;;;;;7.15;5.70;;;;;;;;;;5067727;28;20801;-78
2021/04/10 14:31:38;;;;;;;7.17;5.70;;;;;;;;;;5088382;28;20180;-79
2021/04/10 14:34:04;;;;;;;6.40;5.80;;;;;;;;;;5089268;28;20510;-79
2021/04/10 14:36:34;;;;;;;6.53;5.40;;;;;;;;;;5088104;28;20185;-77
2021/04/10 14:39:09;;;;;;;5.28;4.78;;;;;;;;;;5074453;28;20219;-77
2021/04/10 14:41:44;;;;;;;5.15;4.75;;;;;;;;;;5083556;28;20650;-77
2021/04/10 14:44:16;;;;;;;6.05;4.55;;;;;;;;;;5070952;28;20676;-79
2021/04/10 14:46:48;;;;;;;5.80;4.97;;;;;;;;;;5065190;28;20271;-78
2021/04/10 14:49:14;;;;;;;5.35;4.85;;;;;;;;;;5073362;28;20188;-79
2021/04/10 14:51:51;;;;;;;4.85;4.25;;;;;;;;;;5073882;28;20189;-79
2021/04/10 14:54:17;;;;;;;5.20;4.75;;;;;;;;;;5064467;28;20208;-80
2021/04/10 14:56:47;;;;;;;6.57;4.22;;;;;;;;;;5085886;28;20197;-78
2021/04/10 14:59:13;;;;;;;5.38;4.00;;;;;;;;;;5089361;28;20232;-79
2021/04/10 15:01:47;;;;;;;5.20;4.70;;;;;;;;;;5066754;28;20178;-80
2021/04/10 15:04:19;;;;;;;4.80;4.35;;;;;;;;;;5076020;28;20182;-80
2021/04/10 15:06:54;;;;;;;4.80;4.30;;;;;;;;;;5069770;28;20180;-79
2021/04/10 15:09:20;;;;;;;4.82;4.30;;;;;;;;;;5067581;28;20618;-79
2021/04/10 15:15:09;;;;;;;6.88;4.53;;;;;;;;;;5058410;28;20679;-80
2021/04/10 15:17:54;;;;;;;6.85;5.47;;;;;;;;;;4977032;28;20673;-78
2021/04/10 15:20:25;;;;;;;4.38;3.85;;;;;;;;;;4992443;28;20254;-80
2021/04/10 15:23:01;;;;;;;5.00;4.32;;;;;;;;;;4989790;28;20192;-81
2021/04/10 15:25:27;;;;;;;4.78;4.30;;;;;;;;;;4985998;28;20186;-80
2021/04/10 15:28:07;;;;;;;7.90;4.78;;;;;;;;;;4991844;28;20236;-80
2021/04/10 15:30:33;;;;;;;5.38;4.45;;;;;;;;;;4975549;28;20275;-80
2021/04/10 15:32:59;;;;;;;7.40;4.90;;;;;;;;;;4978530;28;20259;-79
2021/04/10 15:35:25;;;;;;;5.95;5.15;;;;;;;;;;4971814;28;20207;-80
2021/04/10 15:37:51;;;;;;;5.80;4.82;;;;;;;;;;4996889;28;20203;-81
2021/04/10 15:40:17;;;;;;;4.72;4.43;;;;;;;;;;4977050;28;20171;-81
2021/04/10 15:42:46;;;;;;;5.43;4.93;;;;;;;;;;4977332;28;20196;-80
2021/04/10 15:45:12;;;;;;;6.45;5.85;;;;;;;;;;4982965;28;20179;-81
2021/04/10 15:47:38;;;;;;;11.30;6.10;;;;;;;;;;4978118;28;20204;-79
2021/04/10 15:50:04;;;;;;;11.23;6.33;;;;;;;;;;4998920;28;20338;-79
2021/04/10 15:52:30;;;;;;;9.18;7.32;;;;;;;;;;4976652;28;20481;-78
2021/04/10 15:54:56;;;;;;;9.48;7.38;;;;;;;;;;5035535;28;20197;-75
2021/04/10 15:57:23;;;;;;;21.95;9.38;;;;;;;;;;5072699;28;20189;-80
2021/04/10 15:59:52;;;;;;;41.53;10.70;;;;;;;;;;5062273;28;20312;-80
2021/04/10 16:02:20;;;;;;;24.67;10.27;;;;;;;;;;5060087;28;20180;-80
2021/04/10 16:04:52;;;;;;;11.35;7.65;;;;;;;;;;5065031;28;20177;-80
2021/04/10 16:07:19;;;;;;;10.30;6.90;;;;;;;;;;5062159;28;20541;-81
2021/04/10 16:09:47;;;;;;;7.65;6.85;;;;;;;;;;5061020;28;20204;-81